createdAt,value
2024-05-09T00:00:06.731Z,27.62
2024-05-09T00:01:05.227Z,27.62
2024-05-09T00:02:05.319Z,27.63
2024-05-09T00:03:05.255Z,27.63
2024-05-09T00:04:05.320Z,27.63
2024-05-09T00:05:05.300Z,27.62
2024-05-09T00:06:05.446Z,27.62
2024-05-09T00:07:05.175Z,27.62
2024-05-09T00:08:05.335Z,27.60
2024-05-09T00:09:05.200Z,27.63
2024-05-09T00:10:07.130Z,27.62
2024-05-09T00:11:05.262Z,27.60
2024-05-09T00:12:05.412Z,27.62
2024-05-09T00:13:05.422Z,27.60
2024-05-09T00:14:05.202Z,27.63
2024-05-09T00:15:05.189Z,27.62
2024-05-09T00:16:05.181Z,27.63
2024-05-09T00:17:05.235Z,27.62
2024-05-09T00:18:05.998Z,27.60
2024-05-09T00:19:05.367Z,27.60
2024-05-09T00:20:13.968Z,27.59
2024-05-09T00:21:06.403Z,27.60
2024-05-09T00:22:05.221Z,27.62
2024-05-09T00:23:05.237Z,27.60
2024-05-09T00:24:05.215Z,27.62
2024-05-09T00:25:05.195Z,27.59
2024-05-09T00:26:05.323Z,27.60
2024-05-09T00:27:05.201Z,27.60
2024-05-09T00:28:05.203Z,27.60
2024-05-09T00:29:05.316Z,27.60
2024-05-09T00:30:07.199Z,27.60
2024-05-09T00:31:05.232Z,27.58
2024-05-09T00:32:05.393Z,27.59
2024-05-09T00:33:06.541Z,27.58
2024-05-09T00:34:05.830Z,27.59
2024-05-09T00:35:05.442Z,27.59
2024-05-09T00:36:05.445Z,27.60
2024-05-09T00:37:05.478Z,27.63
2024-05-09T00:38:05.604Z,27.59
2024-05-09T00:39:05.461Z,27.59
2024-05-09T00:40:07.439Z,27.58
2024-05-09T00:41:05.517Z,27.58
2024-05-09T00:42:05.485Z,27.56
2024-05-09T00:43:05.512Z,27.58
2024-05-09T00:44:05.523Z,27.60
2024-05-09T00:45:05.498Z,27.58
2024-05-09T00:46:05.479Z,27.59
2024-05-09T00:47:05.657Z,27.60
2024-05-09T00:48:05.675Z,27.60
2024-05-09T00:49:05.593Z,27.56
2024-05-09T00:50:09.943Z,27.59
2024-05-09T00:51:06.633Z,27.59
2024-05-09T00:52:05.494Z,27.60
2024-05-09T00:53:05.539Z,27.58
2024-05-09T00:54:05.523Z,27.58
2024-05-09T00:55:05.499Z,27.58
2024-05-09T00:56:05.562Z,27.59
2024-05-09T00:57:05.527Z,27.58
2024-05-09T00:58:05.506Z,27.58
2024-05-09T00:59:05.632Z,27.59
2024-05-09T01:00:15.012Z,27.56
2024-05-09T01:01:06.568Z,27.59
2024-05-09T01:02:05.620Z,27.56
2024-05-09T01:03:05.938Z,27.59
2024-05-09T01:04:05.602Z,27.58
2024-05-09T01:05:05.640Z,27.56
2024-05-09T01:06:05.564Z,27.58
2024-05-09T01:07:05.605Z,27.56
2024-05-09T01:08:05.576Z,27.56
2024-05-09T01:09:05.541Z,27.56
2024-05-09T01:10:09.194Z,27.56
2024-05-09T01:11:05.654Z,27.58
2024-05-09T01:12:05.748Z,27.56
2024-05-09T01:13:06.068Z,27.53
2024-05-09T01:14:05.608Z,27.55
2024-05-09T01:15:05.527Z,27.55
2024-05-09T01:16:05.522Z,27.56
2024-05-09T01:17:05.548Z,27.56
2024-05-09T01:18:05.626Z,27.55
2024-05-09T01:19:05.615Z,27.56
2024-05-09T01:20:06.420Z,27.55
2024-05-09T01:21:05.546Z,27.58
2024-05-09T01:22:05.540Z,27.56
2024-05-09T01:23:05.565Z,27.56
2024-05-09T01:24:05.548Z,27.56
2024-05-09T01:25:05.525Z,27.55
2024-05-09T01:26:05.594Z,27.56
2024-05-09T01:27:05.614Z,27.56
2024-05-09T01:28:05.566Z,27.55
2024-05-09T01:29:05.610Z,27.53
2024-05-09T01:30:09.243Z,27.55
2024-05-09T01:31:05.545Z,27.56
2024-05-09T01:32:05.703Z,27.55
2024-05-09T01:33:07.025Z,27.53
2024-05-09T01:34:05.628Z,27.55
2024-05-09T01:35:05.605Z,27.53
2024-05-09T01:36:05.554Z,27.55
2024-05-09T01:37:05.655Z,27.56
2024-05-09T01:38:05.767Z,27.56
2024-05-09T01:39:05.560Z,27.55
2024-05-09T01:40:09.553Z,27.55
2024-05-09T01:41:06.581Z,27.56
2024-05-09T01:42:05.568Z,27.53
2024-05-09T01:43:05.592Z,27.53
2024-05-09T01:44:05.616Z,27.53
2024-05-09T01:45:05.567Z,27.53
2024-05-09T01:46:05.594Z,27.55
2024-05-09T01:47:05.670Z,27.53
2024-05-09T01:48:05.795Z,27.53
2024-05-09T01:49:05.767Z,27.53
2024-05-09T01:50:08.970Z,27.56
2024-05-09T01:51:06.697Z,27.55
2024-05-09T01:52:05.581Z,27.52
2024-05-09T01:53:05.664Z,27.53
2024-05-09T01:54:05.581Z,27.53
2024-05-09T01:55:06.707Z,27.52
2024-05-09T01:56:05.614Z,27.53
2024-05-09T01:57:05.618Z,27.53
2024-05-09T01:58:05.661Z,27.55
2024-05-09T01:59:05.670Z,27.53
2024-05-09T02:00:07.847Z,27.55
2024-05-09T02:01:05.782Z,27.53
2024-05-09T02:02:05.819Z,27.53
2024-05-09T02:03:05.758Z,27.55
2024-05-09T02:04:05.965Z,27.53
2024-05-09T02:05:05.898Z,27.55
2024-05-09T02:06:05.770Z,27.53
2024-05-09T02:07:05.595Z,27.52
2024-05-09T02:08:05.646Z,27.52
2024-05-09T02:09:05.586Z,27.52
2024-05-09T02:10:13.596Z,27.53
2024-05-09T02:11:06.650Z,27.53
2024-05-09T02:12:05.712Z,27.52
2024-05-09T02:13:05.632Z,27.50
2024-05-09T02:14:05.629Z,27.52
2024-05-09T02:15:05.591Z,27.52
2024-05-09T02:16:05.610Z,27.50
2024-05-09T02:17:05.630Z,27.52
2024-05-09T02:18:05.842Z,27.52
2024-05-09T02:19:05.682Z,27.55
2024-05-09T02:20:06.270Z,27.50
2024-05-09T02:21:05.631Z,27.52
2024-05-09T02:22:05.636Z,27.50
2024-05-09T02:23:05.743Z,27.52
2024-05-09T02:24:05.630Z,27.53
2024-05-09T02:25:05.620Z,27.52
2024-05-09T02:26:05.643Z,27.48
2024-05-09T02:27:05.659Z,27.50
2024-05-09T02:28:05.655Z,27.50
2024-05-09T02:29:05.659Z,27.50
2024-05-09T02:30:12.260Z,27.50
2024-05-09T02:31:06.622Z,27.50
2024-05-09T02:32:05.696Z,27.49
2024-05-09T02:33:05.834Z,27.50
2024-05-09T02:34:05.724Z,27.48
2024-05-09T02:35:05.652Z,27.50
2024-05-09T02:36:05.647Z,27.49
2024-05-09T02:37:05.740Z,27.50
2024-05-09T02:38:05.748Z,27.50
2024-05-09T02:39:05.674Z,27.50
2024-05-09T02:40:07.091Z,27.49
2024-05-09T02:41:05.667Z,27.49
2024-05-09T02:42:05.651Z,27.48
2024-05-09T02:43:05.932Z,27.48
2024-05-09T02:44:05.724Z,27.49
2024-05-09T02:45:05.656Z,27.49
2024-05-09T02:46:05.661Z,27.48
2024-05-09T02:47:05.756Z,27.49
2024-05-09T02:48:05.914Z,27.49
2024-05-09T02:49:05.720Z,27.49
2024-05-09T02:50:07.812Z,27.48
2024-05-09T02:51:05.765Z,27.49
2024-05-09T02:52:05.677Z,27.49
2024-05-09T02:53:05.979Z,27.49
2024-05-09T02:54:05.713Z,27.48
2024-05-09T02:55:05.739Z,27.50
2024-05-09T02:56:05.869Z,27.50
2024-05-09T02:57:06.029Z,27.48
2024-05-09T02:58:05.851Z,27.48
2024-05-09T02:59:05.942Z,27.48
2024-05-09T03:00:06.196Z,27.48
2024-05-09T03:01:06.041Z,27.48
2024-05-09T03:02:06.144Z,27.49
2024-05-09T03:03:06.390Z,27.48
2024-05-09T03:04:06.245Z,27.49
2024-05-09T03:05:06.097Z,27.48
2024-05-09T03:06:06.007Z,27.49
2024-05-09T03:07:06.030Z,27.46
2024-05-09T03:08:06.066Z,27.48
2024-05-09T03:09:06.002Z,27.49
2024-05-09T03:10:12.161Z,27.49
2024-05-09T03:11:07.095Z,27.48
2024-05-09T03:12:06.105Z,27.49
2024-05-09T03:13:06.029Z,27.49
2024-05-09T03:14:06.073Z,27.49
2024-05-09T03:15:06.018Z,27.45
2024-05-09T03:16:06.029Z,27.48
2024-05-09T03:17:06.062Z,27.49
2024-05-09T03:18:06.325Z,27.45
2024-05-09T03:19:06.077Z,27.42
2024-05-09T03:20:11.638Z,27.49
2024-05-09T03:21:07.207Z,27.46
2024-05-09T03:22:06.036Z,27.46
2024-05-09T03:23:06.447Z,27.45
2024-05-09T03:24:06.040Z,27.48
2024-05-09T03:25:06.046Z,27.45
2024-05-09T03:26:06.092Z,27.42
2024-05-09T03:27:06.052Z,27.45
2024-05-09T03:28:06.102Z,27.48
2024-05-09T03:29:06.077Z,27.46
2024-05-09T03:30:07.634Z,27.44
2024-05-09T03:31:06.038Z,27.45
2024-05-09T03:32:06.151Z,27.45
2024-05-09T03:33:06.178Z,27.42
2024-05-09T03:34:06.160Z,27.42
2024-05-09T03:35:06.073Z,27.39
2024-05-09T03:36:09.091Z,27.39
2024-05-09T03:37:06.074Z,27.38
2024-05-09T03:38:06.079Z,27.34
2024-05-09T03:39:06.096Z,27.32
2024-05-09T03:40:09.339Z,27.25
2024-05-09T03:41:07.093Z,27.21
2024-05-09T03:42:06.059Z,27.17
2024-05-09T03:43:06.077Z,27.13
2024-05-09T03:44:06.108Z,27.08
2024-05-09T03:45:06.060Z,27.03
2024-05-09T03:46:06.043Z,27.00
2024-05-09T03:47:06.171Z,26.96
2024-05-09T03:48:06.157Z,26.91
2024-05-09T03:49:06.113Z,26.89
2024-05-09T03:50:11.957Z,26.87
2024-05-09T03:51:07.292Z,26.84
2024-05-09T03:52:06.084Z,26.80
2024-05-09T03:53:06.155Z,26.79
2024-05-09T03:54:06.061Z,26.77
2024-05-09T03:55:06.056Z,26.73
2024-05-09T03:56:06.112Z,26.73
2024-05-09T03:57:06.087Z,26.72
2024-05-09T03:58:06.191Z,26.69
2024-05-09T03:59:06.113Z,26.64
2024-05-09T04:00:12.230Z,26.62
2024-05-09T04:01:07.098Z,26.60
2024-05-09T04:02:06.202Z,26.60
2024-05-09T04:03:08.236Z,26.59
2024-05-09T04:04:06.170Z,26.56
2024-05-09T04:05:06.156Z,26.53
2024-05-09T04:06:06.081Z,26.52
2024-05-09T04:07:06.151Z,26.50
2024-05-09T04:08:06.193Z,26.49
2024-05-09T04:09:06.117Z,26.46
2024-05-09T04:10:09.002Z,26.43
2024-05-09T04:11:07.176Z,26.43
2024-05-09T04:12:06.187Z,26.41
2024-05-09T04:13:06.142Z,26.39
2024-05-09T04:14:06.101Z,26.39
2024-05-09T04:15:08.155Z,26.36
2024-05-09T04:16:06.103Z,26.38
2024-05-09T04:17:06.141Z,26.35
2024-05-09T04:18:06.412Z,26.32
2024-05-09T04:19:06.249Z,26.34
2024-05-09T04:20:08.359Z,26.30
2024-05-09T04:21:15.811Z,26.28
2024-05-09T04:22:15.761Z,26.24
2024-05-09T04:23:15.830Z,26.27
2024-05-09T04:24:15.746Z,26.24
2024-05-09T04:25:15.752Z,26.27
2024-05-09T04:26:15.787Z,26.24
2024-05-09T04:27:15.762Z,26.27
2024-05-09T04:28:15.761Z,26.22
2024-05-09T04:29:15.815Z,26.22
2024-05-09T04:30:25.346Z,26.22
2024-05-09T04:31:27.859Z,26.18
2024-05-09T04:32:28.064Z,26.20
2024-05-09T04:33:28.008Z,26.20
2024-05-09T04:34:27.969Z,26.18
2024-05-09T04:35:27.960Z,26.18
2024-05-09T04:36:27.878Z,26.18
2024-05-09T04:37:27.892Z,26.18
2024-05-09T04:38:27.912Z,26.17
2024-05-09T04:39:27.890Z,26.20
2024-05-09T04:40:33.346Z,26.15
2024-05-09T04:41:28.967Z,26.14
2024-05-09T04:42:27.926Z,26.15
2024-05-09T04:43:27.879Z,26.15
2024-05-09T04:44:27.986Z,26.14
2024-05-09T04:45:27.893Z,26.13
2024-05-09T04:46:27.904Z,26.13
2024-05-09T04:47:28.091Z,26.13
2024-05-09T04:48:28.068Z,26.09
2024-05-09T04:49:27.948Z,26.09
2024-05-09T04:50:35.954Z,26.09
2024-05-09T04:51:28.909Z,26.08
2024-05-09T04:52:27.916Z,26.07
2024-05-09T04:53:27.965Z,26.07
2024-05-09T04:54:34.282Z,26.05
2024-05-09T04:55:28.916Z,26.07
2024-05-09T04:56:27.936Z,26.04
2024-05-09T04:57:27.966Z,26.01
2024-05-09T04:58:27.909Z,26.01
2024-05-09T04:59:27.972Z,26.03
2024-05-09T05:00:35.517Z,26.01
2024-05-09T05:01:28.997Z,26.01
2024-05-09T05:02:27.998Z,26.01
2024-05-09T05:03:28.046Z,26.01
2024-05-09T05:04:27.950Z,26.00
2024-05-09T05:05:27.972Z,25.98
2024-05-09T05:06:27.926Z,25.96
2024-05-09T05:07:27.942Z,25.98
2024-05-09T05:08:27.924Z,25.98
2024-05-09T05:09:27.932Z,25.98
2024-05-09T05:10:33.673Z,25.96
2024-05-09T05:11:29.126Z,25.97
2024-05-09T05:12:28.134Z,25.97
2024-05-09T05:13:27.939Z,25.96
2024-05-09T05:14:28.099Z,25.93
2024-05-09T05:15:27.955Z,25.93
2024-05-09T05:16:27.958Z,25.94
2024-05-09T05:17:28.103Z,25.96
2024-05-09T05:18:28.466Z,25.96
2024-05-09T05:19:28.128Z,25.97
2024-05-09T05:20:33.405Z,25.96
2024-05-09T05:21:29.027Z,25.93
2024-05-09T05:22:27.953Z,25.91
2024-05-09T05:23:28.134Z,25.91
2024-05-09T05:24:27.974Z,25.93
2024-05-09T05:25:27.970Z,25.91
2024-05-09T05:26:28.017Z,25.90
2024-05-09T05:27:27.968Z,25.88
2024-05-09T05:28:27.985Z,25.87
2024-05-09T05:29:28.020Z,25.87
2024-05-09T05:30:32.606Z,25.87
2024-05-09T05:31:28.034Z,25.84
2024-05-09T05:32:28.181Z,25.84
2024-05-09T05:33:28.252Z,25.86
2024-05-09T05:34:28.014Z,25.86
2024-05-09T05:35:28.104Z,25.87
2024-05-09T05:36:27.983Z,25.84
2024-05-09T05:37:27.982Z,25.86
2024-05-09T05:38:28.673Z,25.83
2024-05-09T05:39:27.974Z,25.83
2024-05-09T05:40:35.412Z,25.84
2024-05-09T05:41:29.185Z,25.84
2024-05-09T05:42:28.049Z,25.84
2024-05-09T05:43:28.052Z,25.84
2024-05-09T05:44:28.075Z,25.80
2024-05-09T05:45:28.033Z,25.79
2024-05-09T05:46:28.041Z,25.80
2024-05-09T05:47:28.193Z,25.79
2024-05-09T05:48:28.297Z,25.83
2024-05-09T05:49:28.080Z,25.80
2024-05-09T05:50:35.347Z,25.81
2024-05-09T05:51:29.036Z,25.81
2024-05-09T05:52:28.062Z,25.83
2024-05-09T05:53:28.075Z,25.81
2024-05-09T05:54:28.033Z,25.81
2024-05-09T05:55:28.082Z,25.81
2024-05-09T05:56:28.185Z,25.80
2024-05-09T05:57:28.091Z,25.80
2024-05-09T05:58:28.068Z,25.80
2024-05-09T05:59:28.123Z,25.81
2024-05-09T06:00:34.719Z,25.80
2024-05-09T06:01:29.244Z,25.80
2024-05-09T06:02:28.103Z,25.81
2024-05-09T06:03:28.061Z,25.77
2024-05-09T06:04:28.151Z,25.79
2024-05-09T06:05:28.116Z,25.80
2024-05-09T06:06:28.091Z,25.80
2024-05-09T06:07:28.098Z,25.80
2024-05-09T06:08:30.306Z,25.80
2024-05-09T06:09:28.236Z,25.81
2024-05-09T06:10:35.127Z,25.84
2024-05-09T06:11:29.385Z,25.83
2024-05-09T06:12:28.409Z,25.83
2024-05-09T06:13:28.295Z,25.83
2024-05-09T06:14:28.389Z,25.83
2024-05-09T06:15:28.331Z,25.83
2024-05-09T06:16:28.313Z,25.84
2024-05-09T06:17:28.452Z,25.83
2024-05-09T06:18:28.499Z,25.86
2024-05-09T06:19:28.566Z,25.83
2024-05-09T06:20:35.250Z,25.81
2024-05-09T06:21:29.330Z,25.81
2024-05-09T06:22:30.318Z,25.83
2024-05-09T06:23:28.410Z,25.86
2024-05-09T06:24:28.304Z,25.84
2024-05-09T06:25:28.310Z,25.84
2024-05-09T06:26:28.362Z,25.83
2024-05-09T06:27:28.303Z,25.84
2024-05-09T06:28:28.340Z,25.84
2024-05-09T06:29:28.498Z,25.84
2024-05-09T06:30:37.008Z,25.84
2024-05-09T06:31:29.375Z,25.83
2024-05-09T06:32:28.500Z,25.84
2024-05-09T06:33:28.679Z,25.86
2024-05-09T06:34:28.422Z,25.86
2024-05-09T06:35:28.581Z,25.86
2024-05-09T06:36:28.359Z,25.88
2024-05-09T06:37:28.390Z,25.93
2024-05-09T06:38:28.401Z,25.90
2024-05-09T06:39:28.363Z,25.91
2024-05-09T06:40:36.481Z,25.90
2024-05-09T06:41:29.488Z,25.90
2024-05-09T06:42:28.412Z,25.88
2024-05-09T06:43:28.403Z,25.88
2024-05-09T06:44:28.523Z,25.87
2024-05-09T06:45:28.410Z,25.91
2024-05-09T06:46:28.413Z,25.94
2024-05-09T06:47:28.621Z,26.00
2024-05-09T06:48:28.625Z,26.00
2024-05-09T06:49:28.588Z,26.00
2024-05-09T06:50:35.620Z,25.97
2024-05-09T06:51:29.414Z,25.98
2024-05-09T06:52:28.420Z,26.03
2024-05-09T06:53:28.503Z,26.09
2024-05-09T06:54:28.440Z,26.13
2024-05-09T06:55:28.419Z,26.14
2024-05-09T06:56:28.461Z,26.09
2024-05-09T06:57:28.433Z,26.11
2024-05-09T06:58:28.483Z,26.09
2024-05-09T06:59:28.663Z,26.08
2024-05-09T07:00:35.732Z,26.15
2024-05-09T07:01:29.464Z,26.20
2024-05-09T07:02:28.521Z,26.21
2024-05-09T07:03:28.632Z,26.24
2024-05-09T07:04:28.594Z,26.24
2024-05-09T07:05:28.540Z,26.24
2024-05-09T07:06:28.485Z,26.22
2024-05-09T07:07:28.468Z,26.21
2024-05-09T07:08:28.500Z,26.21
2024-05-09T07:09:28.436Z,26.20
2024-05-09T07:10:34.127Z,26.18
2024-05-09T07:11:29.565Z,26.22
2024-05-09T07:12:28.618Z,26.21
2024-05-09T07:13:28.489Z,26.18
2024-05-09T07:14:28.564Z,26.20
2024-05-09T07:15:28.554Z,26.21
2024-05-09T07:16:28.455Z,26.22
2024-05-09T07:17:28.576Z,26.24
2024-05-09T07:18:28.563Z,26.24
2024-05-09T07:19:28.635Z,26.21
2024-05-09T07:20:34.380Z,26.22
2024-05-09T07:21:28.475Z,26.27
2024-05-09T07:22:28.497Z,26.31
2024-05-09T07:23:28.538Z,26.31
2024-05-09T07:24:28.493Z,26.32
2024-05-09T07:25:28.703Z,26.32
2024-05-09T07:26:28.565Z,26.35
2024-05-09T07:27:28.477Z,26.36
2024-05-09T07:28:28.472Z,26.39
2024-05-09T07:29:28.665Z,26.39
2024-05-09T07:30:33.338Z,26.41
2024-05-09T07:31:29.497Z,26.41
2024-05-09T07:32:28.633Z,26.43
2024-05-09T07:33:28.840Z,26.45
2024-05-09T07:34:28.564Z,26.45
2024-05-09T07:35:28.755Z,26.41
2024-05-09T07:36:28.492Z,26.41
2024-05-09T07:37:28.477Z,26.39
2024-05-09T07:38:28.536Z,26.42
2024-05-09T07:39:28.506Z,26.42
2024-05-09T07:40:35.059Z,26.43
2024-05-09T07:41:29.561Z,26.43
2024-05-09T07:42:28.509Z,26.45
2024-05-09T07:43:28.507Z,26.45
2024-05-09T07:44:28.573Z,26.41
2024-05-09T07:45:45.022Z,26.41
2024-05-09T07:47:36.930Z,26.41
2024-05-09T07:48:57.288Z,26.42
2024-05-09T07:50:01.160Z,26.45
2024-05-09T07:53:32.483Z,26.42
2024-05-09T07:53:40.069Z,26.42
2024-05-09T07:54:29.690Z,26.42
2024-05-09T07:55:28.773Z,26.43
2024-05-09T07:56:28.853Z,26.48
2024-05-09T07:57:28.637Z,26.48
2024-05-09T07:58:28.584Z,26.48
2024-05-09T07:59:28.554Z,26.45
2024-05-09T08:00:31.539Z,26.46
2024-05-09T08:01:28.801Z,26.43
2024-05-09T08:02:28.780Z,26.43
2024-05-09T08:03:28.886Z,26.42
2024-05-09T08:04:28.674Z,26.43
2024-05-09T08:05:28.784Z,26.43
2024-05-09T08:06:28.590Z,26.45
2024-05-09T08:07:28.564Z,26.46
2024-05-09T08:08:28.570Z,26.45
2024-05-09T08:09:28.670Z,26.46
2024-05-09T08:10:29.311Z,26.49
2024-05-09T08:11:28.636Z,26.50
2024-05-09T08:12:28.674Z,26.50
2024-05-09T08:13:28.672Z,26.49
2024-05-09T08:14:28.577Z,26.52
2024-05-09T08:15:28.817Z,26.55
2024-05-09T08:16:28.761Z,26.50
2024-05-09T08:17:28.697Z,26.52
2024-05-09T08:18:28.929Z,26.53
2024-05-09T08:19:28.661Z,26.52
2024-05-09T08:20:33.478Z,26.52
2024-05-09T08:21:29.632Z,26.53
2024-05-09T08:22:28.598Z,26.56
2024-05-09T08:23:28.756Z,26.62
2024-05-09T08:24:28.641Z,26.59
2024-05-09T08:25:28.638Z,26.56
2024-05-09T08:26:28.601Z,26.58
2024-05-09T08:27:28.611Z,26.59
2024-05-09T08:28:28.669Z,26.55
2024-05-09T08:29:28.603Z,26.55
2024-05-09T08:30:33.855Z,26.53
2024-05-09T08:31:29.673Z,26.53
2024-05-09T08:32:28.676Z,26.56
2024-05-09T08:33:28.829Z,26.56
2024-05-09T08:34:28.780Z,26.56
2024-05-09T08:35:28.599Z,26.55
2024-05-09T08:36:28.642Z,26.56
2024-05-09T08:37:32.829Z,26.53
2024-05-09T08:38:29.646Z,26.53
2024-05-09T08:39:28.673Z,26.53
2024-05-09T08:40:34.556Z,26.52
2024-05-09T08:41:28.614Z,26.53
2024-05-09T08:42:28.746Z,26.52
2024-05-09T08:43:28.749Z,26.50
2024-05-09T08:44:28.669Z,26.52
2024-05-09T08:45:28.695Z,26.52
2024-05-09T08:46:28.791Z,26.52
2024-05-09T08:47:28.709Z,26.50
2024-05-09T08:48:28.853Z,26.48
2024-05-09T08:49:28.799Z,26.50
2024-05-09T08:50:36.062Z,26.50
2024-05-09T08:51:29.665Z,26.50
2024-05-09T08:52:28.652Z,26.49
2024-05-09T08:53:28.659Z,26.52
2024-05-09T08:54:28.692Z,26.50
2024-05-09T08:55:28.627Z,26.49
2024-05-09T08:56:28.632Z,26.50
2024-05-09T08:57:28.622Z,26.52
2024-05-09T08:58:28.660Z,26.49
2024-05-09T08:59:28.651Z,26.49
2024-05-09T09:00:36.310Z,26.50
2024-05-09T09:01:29.698Z,26.50
2024-05-09T09:02:28.753Z,26.52
2024-05-09T09:03:28.789Z,26.49
2024-05-09T09:04:28.814Z,26.52
2024-05-09T09:05:28.759Z,26.52
2024-05-09T09:06:28.713Z,26.53
2024-05-09T09:07:28.706Z,26.55
2024-05-09T09:08:28.683Z,26.52
2024-05-09T09:09:28.697Z,26.53
2024-05-09T09:10:32.130Z,26.50
2024-05-09T09:11:28.738Z,26.52
2024-05-09T09:12:28.661Z,26.55
2024-05-09T09:13:28.682Z,26.58
2024-05-09T09:14:28.669Z,26.63
2024-05-09T09:15:28.698Z,26.63
2024-05-09T09:16:28.727Z,26.62
2024-05-09T09:17:28.747Z,26.62
2024-05-09T09:18:28.996Z,26.62
2024-05-09T09:19:28.745Z,26.62
2024-05-09T09:20:34.039Z,26.63
2024-05-09T09:21:29.694Z,26.60
2024-05-09T09:22:28.716Z,26.62
2024-05-09T09:23:28.721Z,26.64
2024-05-09T09:24:28.693Z,26.69
2024-05-09T09:25:28.720Z,26.72
2024-05-09T09:26:28.660Z,26.72
2024-05-09T09:27:28.704Z,26.72
2024-05-09T09:28:28.682Z,26.75
2024-05-09T09:29:28.684Z,26.70
2024-05-09T09:30:36.275Z,26.73
2024-05-09T09:31:29.813Z,26.73
2024-05-09T09:32:28.780Z,26.80
2024-05-09T09:33:28.782Z,26.80
2024-05-09T09:34:28.867Z,26.83
2024-05-09T09:35:28.675Z,26.86
2024-05-09T09:36:28.717Z,26.87
2024-05-09T09:37:28.693Z,26.87
2024-05-09T09:38:28.704Z,26.91
2024-05-09T09:39:28.733Z,26.94
2024-05-09T09:40:32.247Z,26.97
2024-05-09T09:41:29.694Z,27.01
2024-05-09T09:42:28.726Z,27.03
2024-05-09T09:43:28.730Z,27.08
2024-05-09T09:44:28.751Z,27.11
2024-05-09T09:45:28.727Z,27.11
2024-05-09T09:46:28.814Z,27.17
2024-05-09T09:47:28.754Z,27.20
2024-05-09T09:48:28.800Z,27.24
2024-05-09T09:49:28.766Z,27.24
2024-05-09T09:50:34.262Z,27.30
2024-05-09T09:51:29.803Z,27.31
2024-05-09T09:52:28.803Z,27.34
2024-05-09T09:53:28.738Z,27.37
2024-05-09T09:54:28.771Z,27.38
2024-05-09T09:55:28.760Z,27.39
2024-05-09T09:56:28.713Z,27.39
2024-05-09T09:57:28.777Z,27.42
2024-05-09T09:58:28.756Z,27.44
2024-05-09T09:59:28.741Z,27.45
2024-05-09T10:00:32.887Z,27.48
2024-05-09T10:01:29.872Z,27.48
2024-05-09T10:02:28.854Z,27.49
2024-05-09T10:03:28.827Z,27.49
2024-05-09T10:04:28.908Z,27.49
2024-05-09T10:05:29.022Z,27.50
2024-05-09T10:06:28.808Z,27.52
2024-05-09T10:07:28.760Z,27.52
2024-05-09T10:08:28.829Z,27.53
2024-05-09T10:09:28.758Z,27.55
2024-05-09T10:10:32.454Z,27.58
2024-05-09T10:11:28.775Z,27.56
2024-05-09T10:12:28.840Z,27.56
2024-05-09T10:13:28.809Z,27.58
2024-05-09T10:14:28.774Z,27.59
2024-05-09T10:15:28.828Z,27.62
2024-05-09T10:16:28.820Z,27.60
2024-05-09T10:17:28.915Z,27.60
2024-05-09T10:18:31.195Z,27.63
2024-05-09T10:19:28.864Z,27.63
2024-05-09T10:20:32.545Z,27.65
2024-05-09T10:21:28.810Z,27.63
2024-05-09T10:22:28.793Z,27.65
2024-05-09T10:23:28.951Z,27.66
2024-05-09T10:24:28.783Z,27.67
2024-05-09T10:25:28.873Z,27.67
2024-05-09T10:26:28.799Z,27.67
2024-05-09T10:27:28.892Z,27.69
2024-05-09T10:28:28.847Z,27.69
2024-05-09T10:29:28.773Z,27.72
2024-05-09T10:30:34.250Z,27.70
2024-05-09T10:31:29.839Z,27.73
2024-05-09T10:32:28.901Z,27.75
2024-05-09T10:33:28.886Z,27.75
2024-05-09T10:34:28.951Z,27.73
2024-05-09T10:35:28.807Z,27.79
2024-05-09T10:36:28.818Z,27.79
2024-05-09T10:37:28.808Z,27.80
2024-05-09T10:38:28.783Z,27.84
2024-05-09T10:39:28.819Z,27.90
2024-05-09T10:40:31.506Z,27.93
2024-05-09T10:41:28.803Z,27.97
2024-05-09T10:42:28.834Z,28.00
2024-05-09T10:43:28.895Z,28.00
2024-05-09T10:44:28.818Z,28.00
2024-05-09T10:45:28.807Z,28.01
2024-05-09T10:46:28.879Z,28.00
2024-05-09T10:47:28.983Z,28.00
2024-05-09T10:48:29.007Z,28.03
2024-05-09T10:49:28.881Z,28.01
2024-05-09T10:50:32.166Z,28.01
2024-05-09T10:51:29.842Z,28.04
2024-05-09T10:52:28.857Z,28.07
2024-05-09T10:53:28.872Z,28.05
2024-05-09T10:54:28.868Z,28.08
2024-05-09T10:55:28.852Z,28.11
2024-05-09T10:56:28.831Z,28.11
2024-05-09T10:57:28.876Z,28.11
2024-05-09T10:58:28.851Z,28.11
2024-05-09T10:59:28.816Z,28.11
2024-05-09T11:00:33.853Z,28.14
2024-05-09T11:01:29.965Z,28.12
2024-05-09T11:02:28.951Z,28.17
2024-05-09T11:03:29.059Z,28.17
2024-05-09T11:04:28.951Z,28.18
2024-05-09T11:05:29.015Z,28.17
2024-05-09T11:06:28.899Z,28.14
2024-05-09T11:07:28.956Z,28.18
2024-05-09T11:08:28.868Z,28.18
2024-05-09T11:09:28.908Z,28.17
2024-05-09T11:10:33.760Z,28.18
2024-05-09T11:11:29.907Z,28.24
2024-05-09T11:12:28.898Z,28.25
2024-05-09T11:13:28.870Z,28.27
2024-05-09T11:14:28.837Z,28.28
2024-05-09T11:15:28.896Z,28.30
2024-05-09T11:16:28.868Z,28.34
2024-05-09T11:17:29.018Z,28.35
2024-05-09T11:18:31.704Z,28.35
2024-05-09T11:19:29.995Z,28.38
2024-05-09T11:20:29.998Z,28.39
2024-05-09T11:21:28.912Z,28.41
2024-05-09T11:22:28.905Z,28.45
2024-05-09T11:23:28.862Z,28.44
2024-05-09T11:24:28.941Z,28.44
2024-05-09T11:25:28.878Z,28.47
2024-05-09T11:26:28.879Z,28.49
2024-05-09T11:27:28.920Z,28.49
2024-05-09T11:28:29.185Z,28.52
2024-05-09T11:29:28.906Z,28.51
2024-05-09T11:30:31.893Z,28.54
2024-05-09T11:31:28.987Z,28.54
2024-05-09T11:32:29.190Z,28.56
2024-05-09T11:33:28.990Z,28.56
2024-05-09T11:34:29.029Z,28.59
2024-05-09T11:35:28.900Z,28.58
2024-05-09T11:36:28.981Z,28.59
2024-05-09T11:37:28.965Z,28.62
2024-05-09T11:38:28.905Z,28.63
2024-05-09T11:39:28.957Z,28.63
2024-05-09T11:40:34.159Z,28.63
2024-05-09T11:41:29.910Z,28.66
2024-05-09T11:42:28.979Z,28.66
2024-05-09T11:43:29.004Z,28.69
2024-05-09T11:44:28.898Z,28.69
2024-05-09T11:45:28.964Z,28.69
2024-05-09T11:46:28.984Z,28.72
2024-05-09T11:47:28.999Z,28.70
2024-05-09T11:48:29.048Z,28.70
2024-05-09T11:49:29.014Z,28.73
2024-05-09T11:50:33.154Z,28.77
2024-05-09T11:51:29.971Z,28.73
2024-05-09T11:52:28.946Z,28.79
2024-05-09T11:53:28.963Z,28.77
2024-05-09T11:54:29.147Z,28.75
2024-05-09T11:55:29.010Z,28.76
2024-05-09T11:56:28.972Z,28.77
2024-05-09T11:57:28.953Z,28.77
2024-05-09T11:58:28.989Z,28.80
2024-05-09T11:59:28.941Z,28.80
2024-05-09T12:00:34.528Z,28.83
2024-05-09T12:01:30.121Z,28.84
2024-05-09T12:02:29.035Z,28.84
2024-05-09T12:03:29.001Z,28.87
2024-05-09T12:04:29.094Z,28.86
2024-05-09T12:05:29.192Z,28.87
2024-05-09T12:06:28.968Z,28.90
2024-05-09T12:07:28.963Z,28.90
2024-05-09T12:08:28.963Z,28.92
2024-05-09T12:09:29.035Z,28.92
2024-05-09T12:10:32.910Z,28.94
2024-05-09T12:11:30.048Z,28.93
2024-05-09T12:12:28.957Z,28.93
2024-05-09T12:13:29.034Z,28.93
2024-05-09T12:14:28.947Z,28.96
2024-05-09T12:15:29.053Z,29.00
2024-05-09T12:16:29.057Z,28.99
2024-05-09T12:17:29.059Z,29.01
2024-05-09T12:18:29.145Z,29.00
2024-05-09T12:19:29.002Z,29.00
2024-05-09T12:20:36.121Z,29.03
2024-05-09T12:21:29.975Z,29.01
2024-05-09T12:22:28.955Z,29.04
2024-05-09T12:23:28.988Z,29.06
2024-05-09T12:24:29.028Z,29.07
2024-05-09T12:25:29.035Z,29.07
2024-05-09T12:26:28.976Z,29.09
2024-05-09T12:27:29.009Z,29.09
2024-05-09T12:28:28.998Z,29.11
2024-05-09T12:29:28.981Z,29.13
2024-05-09T12:30:36.251Z,29.13
2024-05-09T12:31:30.092Z,29.14
2024-05-09T12:32:29.100Z,29.16
2024-05-09T12:33:29.043Z,29.16
2024-05-09T12:34:29.020Z,29.17
2024-05-09T12:35:28.989Z,29.18
2024-05-09T12:36:29.036Z,29.14
2024-05-09T12:37:29.036Z,29.20
2024-05-09T12:38:29.007Z,29.18
2024-05-09T12:39:28.999Z,29.18
2024-05-09T12:40:35.776Z,29.21
2024-05-09T12:41:29.981Z,29.22
2024-05-09T12:42:31.259Z,29.22
2024-05-09T12:43:29.148Z,29.22
2024-05-09T12:44:28.979Z,29.25
2024-05-09T12:45:29.013Z,29.25
2024-05-09T12:46:29.051Z,29.24
2024-05-09T12:47:29.072Z,29.28
2024-05-09T12:48:29.280Z,29.25
2024-05-09T12:49:29.272Z,29.25
2024-05-09T12:50:32.765Z,29.28
2024-05-09T12:51:30.012Z,29.27
2024-05-09T12:52:29.033Z,29.28
2024-05-09T12:53:29.046Z,29.27
2024-05-09T12:54:29.045Z,29.32
2024-05-09T12:55:33.513Z,29.31